createdAt,value
2022-10-23T14:14:01.894Z,59.35
2022-10-23T14:16:58.480Z,59.96
2022-10-23T14:19:27.545Z,60.65
2022-10-23T14:21:56.668Z,60.94
2022-10-23T14:24:29.148Z,61.21
2022-10-23T14:27:06.130Z,61.26
2022-10-23T14:29:35.546Z,61.66
2022-10-23T14:32:02.045Z,62.46
2022-10-23T14:34:28.944Z,63.24
2022-10-23T14:37:07.757Z,63.67
2022-10-23T14:39:36.201Z,62.89
2022-10-23T14:42:05.597Z,62.80
2022-10-23T14:47:15.752Z,62.22
2022-10-23T14:49:52.421Z,62.21
2022-10-23T14:52:19.115Z,62.40
2022-10-23T14:54:48.184Z,62.20
2022-10-23T14:57:16.760Z,61.83
2022-10-23T14:59:43.804Z,62.15
2022-10-23T15:02:17.243Z,61.98
2022-10-23T15:04:43.996Z,62.00
2022-10-23T15:07:10.728Z,62.15
2022-10-23T15:09:42.297Z,62.25
2022-10-23T15:12:35.242Z,62.89
2022-10-23T15:15:02.639Z,62.68
2022-10-23T15:17:29.382Z,62.60
2022-10-23T15:19:58.898Z,62.46
2022-10-23T15:22:34.659Z,62.51
2022-10-23T15:25:01.530Z,62.34
2022-10-23T15:27:30.804Z,62.53
2022-10-23T15:29:57.475Z,62.89
2022-10-23T15:32:29.800Z,62.45
2022-10-23T15:34:58.364Z,62.43
2022-10-23T15:37:29.086Z,62.55
2022-10-23T15:40:01.273Z,62.54
2022-10-23T15:42:31.801Z,62.40
2022-10-23T15:45:00.981Z,62.60
2022-10-23T15:47:30.418Z,62.78
2022-10-23T15:49:59.609Z,63.08
2022-10-23T15:52:28.473Z,63.33
2022-10-23T15:55:00.559Z,63.48
2022-10-23T15:57:31.258Z,63.33
2022-10-23T15:59:58.136Z,63.42
2022-10-23T16:02:27.299Z,63.56
2022-10-23T16:05:02.128Z,63.32
2022-10-23T16:07:35.893Z,63.32
2022-10-23T16:10:13.896Z,63.50
2022-10-23T16:12:43.352Z,63.88
2022-10-23T16:15:10.478Z,64.50
2022-10-23T16:17:37.472Z,64.41
2022-10-23T16:20:07.076Z,64.45
2022-10-23T16:22:34.171Z,64.39
2022-10-23T16:25:02.414Z,64.56
2022-10-23T16:27:31.562Z,64.36
2022-10-23T16:30:03.095Z,64.30
2022-10-23T16:32:32.980Z,63.97
2022-10-23T16:35:02.067Z,64.04
2022-10-23T16:37:40.172Z,64.14
2022-10-23T16:40:14.084Z,64.11
2022-10-23T16:42:59.202Z,64.15
2022-10-23T16:46:06.508Z,64.38
2022-10-23T16:48:34.562Z,64.12
2022-10-23T16:51:05.866Z,64.28
2022-10-23T16:53:38.343Z,63.79
2022-10-23T16:56:09.425Z,63.72
2022-10-23T16:58:38.938Z,63.78
2022-10-23T17:01:15.000Z,63.35
2022-10-23T17:03:50.997Z,63.43
2022-10-23T17:06:39.207Z,63.63
2022-10-23T17:09:06.386Z,63.78
2022-10-23T17:11:38.481Z,63.54
2022-10-23T17:14:08.019Z,63.63
2022-10-23T17:16:40.988Z,63.59
2022-10-23T17:19:20.636Z,63.35
2022-10-23T17:21:54.415Z,63.66
2022-10-23T17:24:21.657Z,63.54
2022-10-23T17:26:50.605Z,63.56
2022-10-23T17:29:18.424Z,63.79
2022-10-23T17:31:47.787Z,63.80
2022-10-23T17:34:18.144Z,63.59
2022-10-23T17:36:50.112Z,63.76
2022-10-23T17:39:21.201Z,64.25
2022-10-23T17:41:50.687Z,64.02
2022-10-23T17:44:17.456Z,63.86
2022-10-23T17:46:46.521Z,64.05
2022-10-23T17:49:13.334Z,64.12
2022-10-23T17:51:40.405Z,64.22
2022-10-23T17:54:10.519Z,63.74
2022-10-23T17:56:38.559Z,64.17
2022-10-23T17:59:08.532Z,64.29
2022-10-23T18:01:35.902Z,64.60
2022-10-23T18:04:07.095Z,65.03
2022-10-23T18:06:37.314Z,64.75
2022-10-23T18:09:05.280Z,64.94
2022-10-23T18:11:45.354Z,64.84
2022-10-23T18:14:15.728Z,64.56
2022-10-23T18:16:45.360Z,64.68
2022-10-23T18:19:19.016Z,64.57
2022-10-23T18:21:46.265Z,64.88
2022-10-23T18:24:13.222Z,64.65
2022-10-23T18:26:41.288Z,64.69
2022-10-23T18:29:11.496Z,65.22
2022-10-23T18:31:41.358Z,65.64
2022-10-23T18:34:20.413Z,65.74
2022-10-23T18:36:52.145Z,65.99
2022-10-23T18:39:22.538Z,66.29
2022-10-23T18:41:52.200Z,65.84
2022-10-23T18:44:20.200Z,66.00
2022-10-23T18:46:47.939Z,66.38
2022-10-23T18:49:17.083Z,66.40
2022-10-23T18:51:45.279Z,67.12
2022-10-23T18:54:16.093Z,66.46
2022-10-23T18:56:49.099Z,66.42
2022-10-23T18:59:18.354Z,66.24
2022-10-23T19:01:45.035Z,66.35
2022-10-23T19:04:18.000Z,66.32
2022-10-23T19:06:46.471Z,66.09
2022-10-23T19:09:14.344Z,65.99
2022-10-23T19:11:41.998Z,66.84
2022-10-23T19:14:08.794Z,67.08
2022-10-23T19:17:01.311Z,67.29
2022-10-23T19:19:36.383Z,67.44
2022-10-23T19:22:04.496Z,67.21
2022-10-23T19:24:46.541Z,67.29
2022-10-23T19:27:14.670Z,66.77
2022-10-23T19:29:46.270Z,66.89
2022-10-23T19:32:13.385Z,66.89
2022-10-23T19:34:42.850Z,66.58
2022-10-23T19:37:11.795Z,66.76
2022-10-23T19:39:38.641Z,66.53
2022-10-23T19:42:08.703Z,66.70
2022-10-23T19:44:35.490Z,66.33
2022-10-23T19:47:03.453Z,66.30
2022-10-23T19:49:33.272Z,66.63
2022-10-23T19:52:00.016Z,66.56
2022-10-23T19:54:29.614Z,66.45
2022-10-23T19:56:57.254Z,66.56
2022-10-23T19:59:24.156Z,66.94
2022-10-23T20:01:55.697Z,66.77
2022-10-23T20:04:28.910Z,66.55
2022-10-23T20:06:58.379Z,66.63
2022-10-23T20:09:25.573Z,66.39
2022-10-23T20:11:52.325Z,66.14
2022-10-23T20:14:19.862Z,66.61
2022-10-23T20:16:50.053Z,66.46
2022-10-23T20:19:21.553Z,66.28
2022-10-23T20:21:53.974Z,66.28
2022-10-23T20:24:21.390Z,66.24
2022-10-23T20:26:51.969Z,66.35
2022-10-23T20:29:22.093Z,66.92
2022-10-23T20:31:53.532Z,67.35
2022-10-23T20:34:20.280Z,67.43
2022-10-23T20:36:49.853Z,67.47
2022-10-23T20:39:20.086Z,67.57
2022-10-23T20:41:49.951Z,67.45
2022-10-23T20:44:18.066Z,67.27
2022-10-23T20:46:47.951Z,67.63
2022-10-23T20:49:14.947Z,67.70
2022-10-23T20:51:42.428Z,67.58
2022-10-23T20:54:13.888Z,67.39
2022-10-23T20:56:42.907Z,67.71
2022-10-23T20:59:14.784Z,67.86
2022-10-23T21:01:49.538Z,67.58
2022-10-23T21:04:18.148Z,67.97
2022-10-23T21:07:08.433Z,67.75
2022-10-23T21:09:33.717Z,67.85
2022-10-23T21:12:06.407Z,68.01
2022-10-23T21:14:35.916Z,67.62
2022-10-23T21:17:03.036Z,67.49
2022-10-23T21:19:31.964Z,67.84
2022-10-23T21:22:01.163Z,67.81
2022-10-23T21:24:27.975Z,68.04
2022-10-23T21:26:54.878Z,68.29
2022-10-23T21:29:26.707Z,67.76
2022-10-23T21:31:58.431Z,67.80
2022-10-23T21:34:28.480Z,67.68
2022-10-23T21:39:43.002Z,68.04
2022-10-23T21:42:13.232Z,67.80
2022-10-23T21:44:40.214Z,67.51
2022-10-23T21:47:06.989Z,67.46
2022-10-23T21:49:33.727Z,67.58
2022-10-23T21:52:06.998Z,67.74
2022-10-23T21:54:38.390Z,67.67
2022-10-23T21:57:05.154Z,67.98
2022-10-23T21:59:34.806Z,67.77
2022-10-23T22:02:02.659Z,67.83
2022-10-23T22:04:29.444Z,67.78
2022-10-23T22:06:56.189Z,67.84
2022-10-23T22:09:25.628Z,68.08
2022-10-23T22:11:53.839Z,68.31
2022-10-23T22:14:23.333Z,68.03
2022-10-23T22:16:50.048Z,68.03
2022-10-23T22:19:21.585Z,68.05
2022-10-23T22:21:51.169Z,68.14
2022-10-23T22:24:18.454Z,68.11
2022-10-23T22:26:51.474Z,68.18
2022-10-23T22:29:21.899Z,68.01
2022-10-23T22:31:50.135Z,67.48
2022-10-23T22:34:33.954Z,68.35
2022-10-23T22:37:07.395Z,68.35
2022-10-23T22:39:36.822Z,68.40
2022-10-23T22:42:05.608Z,68.03
2022-10-23T22:44:32.332Z,68.12
2022-10-23T22:46:59.470Z,68.30
2022-10-23T22:49:28.460Z,68.38
2022-10-23T22:51:55.190Z,68.15
2022-10-23T22:54:21.934Z,67.97
2022-10-23T22:56:48.632Z,68.13
2022-10-23T22:59:20.052Z,68.39
2022-10-23T23:01:49.953Z,68.05
2022-10-23T23:07:10.527Z,68.64
2022-10-23T23:09:39.222Z,68.82
2022-10-23T23:12:07.006Z,69.13
2022-10-23T23:14:33.768Z,69.33
2022-10-23T23:17:00.483Z,69.74
2022-10-23T23:19:32.197Z,69.57
2022-10-23T23:22:01.689Z,69.64
2022-10-23T23:24:28.414Z,69.42
2022-10-23T23:26:55.154Z,69.58
2022-10-23T23:29:24.288Z,69.65
2022-10-23T23:31:53.695Z,69.52
2022-10-23T23:34:24.801Z,69.27
2022-10-23T23:36:51.510Z,69.38
2022-10-23T23:39:18.283Z,69.37
2022-10-23T23:41:47.479Z,69.11
2022-10-23T23:44:13.975Z,69.09
2022-10-23T23:46:43.260Z,68.95
2022-10-23T23:49:10.031Z,68.80
2022-10-23T23:51:37.315Z,68.68
2022-10-23T23:54:06.303Z,68.60
2022-10-23T23:56:33.095Z,68.91
2022-10-23T23:59:02.098Z,68.86
